Terminal Aerodrome Forecast
Issued by NWS Springfield, MO

Home | Current Version | Previous Version | Text Only | Print | Product List | Glossary On
Versions: 1 2 3 4 5 6 7 8 9 10 11 12 13 14 15 16 17 18 19 20 21 22 23 24 25 26
159
FTUS43 KSGF 262320
TAFSGF
TAF
KSGF 262320Z 2700/2724 13012KT P6SM OVC050
     FM270600 15005KT 4SM BR SKC
     FM270900 14006KT 4SM BR BKN015
     FM271500 14012KT P6SM BKN025=

USA.gov is the U.S. government's official web portal to all federal, state and local government web resources and services.